Time;durP1;ratioP1;P1;durP2;ratioP2;P2;SDS_P1;SDS_P2;PMS_P1;PMS_P2;Temp;Humidity;BMP_temperature;BMP_pressure;BME280_temperature;BME280_humidity;BME280_pressure;Samples;Min_cycle;Max_cycle;Signal;HPM_P1;HPM_P2
2022/02/21 00:00:56;;;;;;;1.20;1.00;;;10.80;98.00;;;;;;5113007;28;20519;-68
2022/02/21 00:03:24;;;;;;;1.20;1.10;;;10.80;98.00;;;;;;5114077;27;20519;-68
2022/02/21 00:05:52;;;;;;;1.20;1.00;;;10.80;98.00;;;;;;5114108;28;20547;-68
2022/02/21 00:08:20;;;;;;;1.20;1.00;;;10.90;98.00;;;;;;5113918;28;20482;-68
2022/02/21 00:10:49;;;;;;;1.20;1.00;;;10.90;98.00;;;;;;5114151;28;21031;-67
2022/02/21 00:13:16;;;;;;;1.20;1.00;;;10.90;98.00;;;;;;5112749;28;20451;-68
2022/02/21 00:15:43;;;;;;;1.20;1.10;;;10.90;98.00;;;;;;5114182;28;20848;-68
2022/02/21 00:18:10;;;;;;;1.20;1.10;;;10.90;98.00;;;;;;5113886;28;20494;-68
2022/02/21 00:20:38;;;;;;;1.20;0.93;;;10.90;98.00;;;;;;5113942;28;20964;-68
2022/02/21 00:23:06;;;;;;;1.20;1.00;;;11.00;98.00;;;;;;5113561;28;20976;-68
2022/02/21 00:25:34;;;;;;;1.20;1.10;;;11.00;98.00;;;;;;5113789;28;20562;-68
2022/02/21 00:28:01;;;;;;;1.20;1.00;;;11.00;98.00;;;;;;5113844;28;20849;-68
2022/02/21 00:30:28;;;;;;;1.20;0.90;;;11.00;98.00;;;;;;5112640;28;20454;-68
2022/02/21 00:32:55;;;;;;;1.40;1.10;;;11.10;98.00;;;;;;5113570;28;20487;-68
2022/02/21 00:35:23;;;;;;;1.20;1.00;;;11.10;98.00;;;;;;5113749;28;20456;-67
2022/02/21 00:37:50;;;;;;;1.20;1.00;;;11.10;98.00;;;;;;5113574;28;20478;-68
2022/02/21 00:40:18;;;;;;;1.20;1.00;;;11.20;98.00;;;;;;5113063;28;20455;-67
2022/02/21 00:42:47;;;;;;;1.20;1.00;;;11.20;98.00;;;;;;5112814;28;20891;-68
2022/02/21 00:45:14;;;;;;;1.20;1.00;;;11.20;98.00;;;;;;5112973;28;20545;-68
2022/02/21 00:47:41;;;;;;;1.20;1.00;;;11.20;98.00;;;;;;5111894;28;20454;-68
2022/02/21 00:50:09;;;;;;;1.20;1.00;;;11.20;98.00;;;;;;5113343;28;20542;-68
2022/02/21 00:52:37;;;;;;;1.20;1.00;;;11.20;98.00;;;;;;5112947;28;20447;-67
2022/02/21 00:55:05;;;;;;;1.20;1.00;;;11.20;98.00;;;;;;5113287;28;20463;-68
2022/02/21 00:57:32;;;;;;;1.20;1.00;;;11.20;98.00;;;;;;5112045;28;20946;-67
2022/02/21 01:00:00;;;;;;;1.20;1.10;;;11.20;98.00;;;;;;5113209;27;20547;-68
2022/02/21 01:02:27;;;;;;;1.20;1.10;;;11.20;98.00;;;;;;5112918;28;20455;-68
2022/02/21 01:04:54;;;;;;;1.20;1.00;;;11.20;98.00;;;;;;5113080;28;20535;-68
2022/02/21 01:07:21;;;;;;;1.30;1.20;;;11.20;98.00;;;;;;5112906;28;20523;-68
2022/02/21 01:09:48;;;;;;;1.30;1.10;;;11.20;98.00;;;;;;5112914;28;20536;-68
2022/02/21 01:12:15;;;;;;;1.20;1.10;;;11.20;98.00;;;;;;5113034;28;20941;-68
2022/02/21 01:14:43;;;;;;;1.20;1.10;;;11.10;98.00;;;;;;5112821;28;20494;-68
2022/02/21 01:17:11;;;;;;;1.20;1.00;;;11.00;98.00;;;;;;5111526;28;20540;-68
2022/02/21 01:19:38;;;;;;;1.20;1.00;;;11.00;98.00;;;;;;5112848;28;20481;-67
2022/02/21 01:22:07;;;;;;;1.20;1.00;;;11.00;98.00;;;;;;5112856;28;20487;-67
2022/02/21 01:24:39;;;;;;;1.20;1.00;;;11.00;98.00;;;;;;5112765;28;20461;-67
2022/02/21 01:27:06;;;;;;;1.20;1.00;;;11.00;98.00;;;;;;5112812;28;20514;-67
2022/02/21 01:29:33;;;;;;;1.20;1.00;;;10.90;98.00;;;;;;5112585;28;20493;-68
2022/02/21 01:32:00;;;;;;;1.20;1.00;;;10.90;98.00;;;;;;5112757;28;20924;-68
2022/02/21 01:34:28;;;;;;;1.20;1.00;;;10.90;98.00;;;;;;5111457;28;20452;-68
2022/02/21 01:36:55;;;;;;;1.20;1.00;;;10.90;98.00;;;;;;5112628;28;20451;-67
2022/02/21 01:39:22;;;;;;;1.20;0.90;;;10.90;98.00;;;;;;5111240;28;20505;-67
2022/02/21 01:41:49;;;;;;;1.20;1.00;;;10.80;98.00;;;;;;5112223;28;20497;-68
2022/02/21 01:44:17;;;;;;;1.20;1.00;;;10.80;98.00;;;;;;5110968;28;20534;-68
2022/02/21 01:46:44;;;;;;;1.20;0.97;;;10.80;98.00;;;;;;5112212;28;20478;-67
2022/02/21 01:49:13;;;;;;;1.20;0.90;;;10.80;98.00;;;;;;5112211;28;20508;-67
2022/02/21 01:51:42;;;;;;;1.20;1.00;;;10.80;98.00;;;;;;5112134;28;20490;-67
2022/02/21 01:54:12;;;;;;;1.20;1.00;;;10.80;98.00;;;;;;5112328;28;20486;-67
2022/02/21 01:56:39;;;;;;;1.20;1.00;;;10.80;98.00;;;;;;5111964;28;20463;-67
2022/02/21 01:59:07;;;;;;;1.20;0.90;;;10.80;98.00;;;;;;5112448;28;20556;-67
2022/02/21 02:01:34;;;;;;;1.20;0.97;;;10.80;98.00;;;;;;5112220;28;21335;-68
2022/02/21 02:04:01;;;;;;;1.20;1.00;;;10.80;98.00;;;;;;5112257;28;20869;-68
2022/02/21 02:06:29;;;;;;;1.20;0.93;;;10.80;98.00;;;;;;5110709;28;21048;-67
2022/02/21 02:08:58;;;;;;;1.20;1.00;;;10.80;98.00;;;;;;5112067;28;21132;-67
2022/02/21 02:11:27;;;;;;;1.20;1.00;;;10.80;98.00;;;;;;5112048;28;20486;-67
2022/02/21 02:13:55;;;;;;;1.20;1.00;;;10.80;98.00;;;;;;5111025;28;20457;-67
2022/02/21 02:16:22;;;;;;;1.20;0.90;;;10.90;98.00;;;;;;5111976;28;20533;-67
2022/02/21 02:18:49;;;;;;;1.40;1.30;;;10.80;98.00;;;;;;5112296;28;20459;-67
2022/02/21 02:21:21;;;;;;;1.20;1.00;;;10.80;98.00;;;;;;5110943;28;20482;-68
2022/02/21 02:23:52;;;;;;;1.20;1.00;;;10.80;98.00;;;;;;5112281;28;20848;-68
2022/02/21 02:26:20;;;;;;;1.60;1.10;;;10.80;98.00;;;;;;5111785;28;20479;-67
2022/02/21 02:28:50;;;;;;;1.20;1.00;;;10.80;98.00;;;;;;5110785;28;20553;-67
2022/02/21 02:31:17;;;;;;;1.20;1.00;;;10.80;98.00;;;;;;5111875;28;20808;-67
2022/02/21 02:33:44;;;;;;;1.20;0.90;;;10.80;98.00;;;;;;5111805;28;20456;-67
2022/02/21 02:36:11;;;;;;;1.20;1.00;;;10.80;98.00;;;;;;5111714;28;20450;-67
2022/02/21 02:38:39;;;;;;;1.20;1.00;;;10.80;98.00;;;;;;5111733;28;20454;-67
2022/02/21 02:41:10;;;;;;;1.20;1.00;;;10.70;98.00;;;;;;5111687;28;21004;-67
2022/02/21 02:43:37;;;;;;;1.20;1.00;;;10.70;98.00;;;;;;5111481;28;20459;-67
2022/02/21 02:46:04;;;;;;;1.20;1.00;;;10.70;98.00;;;;;;5111697;28;20493;-67
2022/02/21 02:48:32;;;;;;;1.20;1.10;;;10.70;98.00;;;;;;5111595;28;20493;-67
2022/02/21 02:51:00;;;;;;;1.20;0.90;;;10.70;98.00;;;;;;5111637;28;20466;-67
2022/02/21 02:53:27;;;;;;;1.20;1.10;;;10.70;98.00;;;;;;5111768;28;20450;-67
2022/02/21 02:55:54;;;;;;;1.20;1.00;;;10.70;98.00;;;;;;5110411;28;20505;-68
2022/02/21 02:58:22;;;;;;;1.20;0.97;;;10.70;98.00;;;;;;5111652;28;20542;-67
2022/02/21 03:00:51;;;;;;;1.20;0.90;;;10.70;98.00;;;;;;5111834;28;20493;-67
2022/02/21 03:03:18;;;;;;;1.20;1.17;;;10.70;98.00;;;;;;5111753;28;20489;-68
2022/02/21 03:05:45;;;;;;;1.20;0.90;;;10.70;98.00;;;;;;5111841;28;20479;-67
2022/02/21 03:08:12;;;;;;;1.20;1.00;;;10.60;98.00;;;;;;5111427;28;20514;-67
2022/02/21 03:10:39;;;;;;;1.20;1.00;;;10.60;98.00;;;;;;5111713;28;20514;-67
2022/02/21 03:13:07;;;;;;;1.20;0.97;;;10.60;98.00;;;;;;5110512;28;20996;-67
2022/02/21 03:15:35;;;;;;;1.20;1.00;;;10.50;98.00;;;;;;5111780;28;21008;-68
2022/02/21 03:18:03;;;;;;;1.20;1.00;;;10.50;98.00;;;;;;5111381;28;20482;-67
2022/02/21 03:20:30;;;;;;;1.20;1.00;;;10.50;98.00;;;;;;5111673;28;20491;-67
2022/02/21 03:22:57;;;;;;;3.10;1.30;;;10.50;98.00;;;;;;5115106;28;20562;-67
2022/02/21 03:25:24;;;;;;;1.20;1.00;;;10.60;98.00;;;;;;5114908;27;20493;-68
2022/02/21 03:27:51;;;;;;;1.20;1.00;;;10.60;98.00;;;;;;5114708;28;20521;-67
2022/02/21 03:30:18;;;;;;;1.20;1.00;;;10.70;98.00;;;;;;5114943;28;20849;-67
2022/02/21 03:32:46;;;;;;;1.20;1.00;;;10.70;98.00;;;;;;5114700;28;20482;-67
2022/02/21 03:35:15;;;;;;;1.20;1.00;;;10.70;98.00;;;;;;5114675;28;20894;-68
2022/02/21 03:37:42;;;;;;;1.20;1.00;;;10.70;98.00;;;;;;5114693;28;20465;-67
2022/02/21 03:40:10;;;;;;;1.20;1.00;;;10.80;98.00;;;;;;5114818;28;20514;-67
2022/02/21 03:42:38;;;;;;;1.20;1.00;;;10.80;98.00;;;;;;5114481;28;20463;-67
2022/02/21 03:45:06;;;;;;;1.20;1.00;;;10.90;98.00;;;;;;5114669;28;20489;-68
2022/02/21 03:47:36;;;;;;;1.20;0.90;;;10.90;98.00;;;;;;5114459;28;20485;-68
2022/02/21 03:50:05;;;;;;;1.20;0.90;;;10.80;98.00;;;;;;5114570;28;20456;-67
2022/02/21 03:52:34;;;;;;;1.20;1.00;;;10.50;98.00;;;;;;5114457;28;21036;-69
2022/02/21 03:55:01;;;;;;;1.20;0.90;;;7.30;98.00;;;;;;5114544;28;20808;-67
2022/02/21 03:57:28;;;;;;;1.20;1.00;;;;;;;;;;5114384;28;20476;-67
2022/02/21 03:59:55;;;;;;;1.20;1.00;;;4.80;98.00;;;;;;5114554;28;20479;-67
2022/02/21 04:02:24;;;;;;;1.20;0.90;;;4.40;98.00;;;;;;5114251;28;20495;-67
2022/02/21 04:04:51;;;;;;;1.20;1.00;;;4.20;98.00;;;;;;5113256;28;20952;-67
2022/02/21 04:07:20;;;;;;;1.20;1.00;;;4.20;98.00;;;;;;5114421;28;20581;-67
2022/02/21 04:09:49;;;;;;;1.20;1.00;;;4.30;98.00;;;;;;5114387;28;20455;-67
2022/02/21 04:12:16;;;;;;;1.20;1.00;;;4.40;98.00;;;;;;5113814;28;20482;-67
2022/02/21 04:14:43;;;;;;;1.10;1.00;;;4.50;98.00;;;;;;5113910;28;20451;-67
2022/02/21 04:17:10;;;;;;;1.20;1.00;;;4.60;98.00;;;;;;5113888;28;20983;-67
2022/02/21 04:19:37;;;;;;;1.13;0.97;;;4.50;98.00;;;;;;5112633;28;20803;-67
2022/02/21 04:22:09;;;;;;;1.20;1.00;;;4.50;98.00;;;;;;5114004;28;20997;-67
2022/02/21 04:24:37;;;;;;;1.20;1.00;;;4.50;98.00;;;;;;5113756;28;20490;-67
2022/02/21 04:27:05;;;;;;;1.10;1.00;;;4.50;98.00;;;;;;5113776;28;20569;-67
2022/02/21 04:29:32;;;;;;;1.10;0.90;;;4.40;98.00;;;;;;5113611;28;20479;-67
2022/02/21 04:31:59;;;;;;;1.10;0.90;;;4.40;98.00;;;;;;5113654;28;20551;-67
2022/02/21 04:34:26;;;;;;;1.10;0.97;;;4.40;98.00;;;;;;5113450;28;20487;-67
2022/02/21 04:36:54;;;;;;;1.20;1.00;;;4.30;98.00;;;;;;5113528;28;20498;-67
2022/02/21 04:39:21;;;;;;;1.17;1.00;;;4.30;98.00;;;;;;5113458;28;20451;-67
2022/02/21 04:41:50;;;;;;;1.20;1.00;;;4.20;98.00;;;;;;5113516;28;21153;-67
2022/02/21 04:44:18;;;;;;;1.20;1.00;;;4.20;98.00;;;;;;5112234;28;20484;-67
2022/02/21 04:46:48;;;;;;;1.20;1.00;;;4.20;98.00;;;;;;5113359;28;20551;-67
2022/02/21 04:49:15;;;;;;;1.20;1.00;;;4.30;98.00;;;;;;5113629;28;20941;-67
2022/02/21 04:51:43;;;;;;;1.20;1.00;;;4.30;98.00;;;;;;5113309;28;20969;-67
2022/02/21 04:54:10;;;;;;;1.20;0.90;;;4.30;98.00;;;;;;5113617;28;20542;-67
2022/02/21 04:56:37;;;;;;;1.20;1.00;;;4.30;98.00;;;;;;5113188;28;20454;-67
2022/02/21 04:59:05;;;;;;;1.20;1.00;;;4.40;98.00;;;;;;5113520;28;20451;-67
2022/02/21 05:01:32;;;;;;;1.20;1.00;;;4.40;98.00;;;;;;5113188;28;20495;-67
2022/02/21 05:04:00;;;;;;;1.20;1.00;;;4.40;98.00;;;;;;5112999;28;20926;-68
2022/02/21 05:06:28;;;;;;;1.20;0.90;;;4.40;98.00;;;;;;5113157;28;20513;-67
2022/02/21 05:08:55;;;;;;;1.20;0.90;;;4.40;98.00;;;;;;5112756;28;20552;-68
2022/02/21 05:11:22;;;;;;;1.20;1.00;;;4.50;98.00;;;;;;5112495;28;20491;-67
2022/02/21 05:13:49;;;;;;;1.20;1.00;;;4.40;98.00;;;;;;5112795;28;20530;-67
2022/02/21 05:16:18;;;;;;;1.20;0.93;;;4.50;98.00;;;;;;5112884;28;20451;-68
2022/02/21 05:18:45;;;;;;;1.20;1.00;;;4.50;98.00;;;;;;5112748;28;20537;-67
2022/02/21 05:21:12;;;;;;;1.20;1.00;;;4.50;98.00;;;;;;5111542;28;20455;-67
2022/02/21 05:23:39;;;;;;;1.20;1.00;;;4.60;98.00;;;;;;5112588;28;20816;-67
2022/02/21 05:26:06;;;;;;;1.20;1.00;;;4.60;98.00;;;;;;5112630;28;20462;-67
2022/02/21 05:28:33;;;;;;;1.20;0.90;;;4.70;98.00;;;;;;5112640;28;20516;-68
2022/02/21 05:31:01;;;;;;;1.20;1.00;;;4.70;98.00;;;;;;5112799;28;20508;-67
2022/02/21 05:33:30;;;;;;;1.20;1.00;;;4.80;98.00;;;;;;5112501;28;20459;-68
2022/02/21 05:38:41;;;;;;;1.20;0.90;;;4.80;98.00;;;;;;5110511;28;20572;-68
2022/02/21 05:41:10;;;;;;;1.20;0.90;;;4.80;98.00;;;;;;5112659;28;20812;-68
2022/02/21 05:43:37;;;;;;;5.00;1.33;;;4.90;98.00;;;;;;5112017;28;20448;-68
2022/02/21 05:46:06;;;;;;;1.20;1.10;;;4.90;98.00;;;;;;5111401;28;20846;-68
2022/02/21 05:48:34;;;;;;;1.83;1.50;;;4.90;98.00;;;;;;5112434;28;20523;-67
2022/02/21 05:51:01;;;;;;;1.20;1.00;;;4.80;98.00;;;;;;5112022;28;20486;-67
2022/02/21 05:53:28;;;;;;;1.20;1.00;;;4.80;98.00;;;;;;5111925;28;20758;-67
2022/02/21 05:55:55;;;;;;;1.20;1.00;;;4.90;98.00;;;;;;5111533;28;20465;-67
2022/02/21 05:58:24;;;;;;;1.20;1.00;;;4.90;98.00;;;;;;5110987;28;20444;-67
2022/02/21 06:00:51;;;;;;;1.20;1.00;;;4.90;98.00;;;;;;5094096;28;20463;-67
2022/02/21 06:03:18;;;;;;;1.20;0.93;;;4.90;98.00;;;;;;5110977;28;20481;-67
2022/02/21 06:05:47;;;;;;;2.33;1.20;;;4.90;98.00;;;;;;5112056;28;20476;-68
2022/02/21 06:08:14;;;;;;;1.20;0.90;;;4.90;98.00;;;;;;5111878;28;20480;-67
2022/02/21 06:10:41;;;;;;;1.20;1.00;;;4.90;98.00;;;;;;5112032;28;20456;-68
2022/02/21 06:13:08;;;;;;;1.20;1.00;;;4.90;98.00;;;;;;5112001;28;20488;-67
2022/02/21 06:15:35;;;;;;;1.20;1.00;;;4.90;98.00;;;;;;5111920;28;20491;-67
2022/02/21 06:18:02;;;;;;;1.20;0.97;;;4.90;98.00;;;;;;5111910;28;20516;-68
2022/02/21 06:20:30;;;;;;;1.17;0.90;;;4.90;98.00;;;;;;5112114;28;20865;-67
2022/02/21 06:22:58;;;;;;;1.17;0.97;;;4.90;98.00;;;;;;5110564;28;20539;-67
2022/02/21 06:25:25;;;;;;;1.20;0.90;;;5.00;98.00;;;;;;5112025;28;20494;-67
2022/02/21 06:27:52;;;;;;;7.77;1.53;;;5.00;98.00;;;;;;5110538;28;20527;-67
2022/02/21 06:30:22;;;;;;;1.20;0.90;;;5.00;98.00;;;;;;5112023;28;20498;-67
2022/02/21 06:32:49;;;;;;;2.50;1.60;;;5.10;98.00;;;;;;5111730;28;20525;-68
2022/02/21 06:35:16;;;;;;;1.20;1.00;;;5.10;98.00;;;;;;5111825;28;20487;-67
2022/02/21 06:37:46;;;;;;;1.20;1.00;;;5.10;98.00;;;;;;5111896;28;21014;-68
2022/02/21 06:40:15;;;;;;;1.93;1.10;;;5.20;98.00;;;;;;5111944;28;20451;-68
2022/02/21 06:42:42;;;;;;;1.20;1.00;;;5.20;98.00;;;;;;5111872;28;20845;-67
2022/02/21 06:45:09;;;;;;;1.20;1.00;;;5.20;98.00;;;;;;5112082;28;20967;-68
2022/02/21 06:47:37;;;;;;;1.20;1.00;;;5.20;98.00;;;;;;5111540;28;20522;-68
2022/02/21 06:50:06;;;;;;;1.30;1.10;;;5.30;98.00;;;;;;5110720;28;20487;-68
2022/02/21 06:52:35;;;;;;;1.20;0.90;;;5.40;98.00;;;;;;5111542;28;20447;-67
2022/02/21 06:55:04;;;;;;;1.20;0.90;;;5.50;98.00;;;;;;5111723;28;20499;-68
2022/02/21 06:57:32;;;;;;;1.20;1.00;;;5.50;98.00;;;;;;5114703;28;20504;-67
2022/02/21 07:00:00;;;;;;;1.20;1.00;;;5.50;98.00;;;;;;5115539;28;20504;-68
2022/02/21 07:02:30;;;;;;;1.20;0.90;;;5.50;98.00;;;;;;5115294;28;20482;-68
2022/02/21 07:04:59;;;;;;;1.20;1.00;;;5.50;98.00;;;;;;5115299;28;20451;-68
2022/02/21 07:07:26;;;;;;;1.20;1.00;;;5.50;98.00;;;;;;5115177;27;20938;-68
2022/02/21 07:09:53;;;;;;;1.43;1.20;;;5.60;98.00;;;;;;5115476;28;20495;-68
2022/02/21 07:12:20;;;;;;;1.20;0.90;;;5.70;98.00;;;;;;5113990;28;20489;-67
2022/02/21 07:14:48;;;;;;;1.20;1.00;;;5.70;98.00;;;;;;5115323;28;20993;-68
2022/02/21 07:17:15;;;;;;;1.20;1.00;;;5.80;98.00;;;;;;5115191;28;20867;-68
2022/02/21 07:19:42;;;;;;;1.20;0.93;;;5.80;98.00;;;;;;5115205;28;20490;-68
2022/02/21 07:22:09;;;;;;;1.20;0.90;;;5.80;98.00;;;;;;5115183;28;20538;-68
2022/02/21 07:24:37;;;;;;;1.20;1.00;;;5.70;98.00;;;;;;5115106;28;20540;-68
2022/02/21 07:27:05;;;;;;;3.00;1.63;;;5.70;98.00;;;;;;5115183;28;20456;-68
2022/02/21 07:29:33;;;;;;;1.20;1.00;;;5.70;98.00;;;;;;5115035;28;20516;-67
2022/02/21 07:32:02;;;;;;;1.20;1.00;;;5.70;98.00;;;;;;5115284;28;20448;-68
2022/02/21 07:34:29;;;;;;;1.60;1.47;;;5.70;98.00;;;;;;5114877;28;20507;-67
2022/02/21 07:36:55;;;;;;;1.20;1.20;;;5.70;98.00;;;;;;5114914;28;20495;-67
2022/02/21 07:39:22;;;;;;;1.20;1.00;;;5.70;98.00;;;;;;5114764;28;20506;-68
2022/02/21 07:41:49;;;;;;;1.20;0.90;;;5.70;98.00;;;;;;5114756;28;20488;-67
2022/02/21 07:44:16;;;;;;;1.20;0.90;;;5.70;98.00;;;;;;5114655;28;20556;-68
2022/02/21 07:46:43;;;;;;;1.20;1.00;;;5.80;98.00;;;;;;5114667;28;20484;-68
2022/02/21 07:49:12;;;;;;;1.20;1.00;;;5.70;98.00;;;;;;5114432;28;20484;-67
2022/02/21 07:51:39;;;;;;;1.20;1.00;;;5.70;98.00;;;;;;5114545;28;20452;-68
2022/02/21 07:54:07;;;;;;;1.20;1.00;;;5.70;98.00;;;;;;5114091;27;20474;-68
2022/02/21 07:56:34;;;;;;;1.20;1.00;;;5.80;98.00;;;;;;5114287;28;20490;-68
2022/02/21 07:59:01;;;;;;;2.70;1.20;;;5.80;98.00;;;;;;5114204;28;21007;-68
2022/02/21 08:01:29;;;;;;;1.20;0.90;;;5.90;98.00;;;;;;5114475;28;20457;-68
2022/02/21 08:03:56;;;;;;;1.20;0.90;;;5.90;98.00;;;;;;5114182;28;20465;-69
2022/02/21 08:06:24;;;;;;;1.20;1.00;;;6.00;98.00;;;;;;5113801;28;20955;-67
2022/02/21 08:08:52;;;;;;;10.17;2.43;;;5.90;98.00;;;;;;5114206;28;20512;-67
2022/02/21 08:11:18;;;;;;;1.20;1.00;;;5.90;98.00;;;;;;5114046;28;20995;-67
2022/02/21 08:13:46;;;;;;;1.20;1.00;;;5.90;98.00;;;;;;5114121;28;20458;-67
2022/02/21 08:16:13;;;;;;;1.20;1.00;;;6.00;98.00;;;;;;5113833;28;20458;-68
2022/02/21 08:18:40;;;;;;;1.20;1.00;;;6.10;98.00;;;;;;5112987;28;20483;-68
2022/02/21 08:21:07;;;;;;;1.60;1.40;;;6.30;98.00;;;;;;5113009;28;20540;-68
2022/02/21 08:23:36;;;;;;;1.20;0.90;;;6.30;98.00;;;;;;5113740;28;20459;-68
2022/02/21 08:26:04;;;;;;;1.90;1.27;;;6.40;98.00;;;;;;5114030;28;20518;-68
2022/02/21 08:28:31;;;;;;;1.20;1.00;;;6.40;98.00;;;;;;5113926;28;20906;-68
2022/02/21 08:30:58;;;;;;;1.20;0.97;;;6.40;98.00;;;;;;5113876;28;20488;-68
2022/02/21 08:33:25;;;;;;;15.37;2.27;;;6.40;98.00;;;;;;5113575;28;20497;-68
2022/02/21 08:35:52;;;;;;;1.20;1.00;;;6.40;98.00;;;;;;5113616;28;20492;-67
2022/02/21 08:38:19;;;;;;;1.20;0.90;;;6.40;98.00;;;;;;5113509;28;20496;-68
2022/02/21 08:40:48;;;;;;;1.20;0.97;;;6.40;98.00;;;;;;5113587;28;20540;-68
2022/02/21 08:43:15;;;;;;;1.20;1.20;;;6.40;98.00;;;;;;5113466;28;20467;-69
2022/02/21 08:45:42;;;;;;;1.20;1.00;;;6.40;98.00;;;;;;5109229;27;20505;-68
2022/02/21 08:48:09;;;;;;;1.20;1.00;;;6.40;98.00;;;;;;5100582;28;21020;-70
2022/02/21 08:50:38;;;;;;;7.93;1.10;;;6.40;98.00;;;;;;5092243;28;20547;-71
2022/02/21 08:53:04;;;;;;;2.90;1.27;;;6.40;98.00;;;;;;5098505;28;20492;-71
2022/02/21 08:55:31;;;;;;;1.20;1.00;;;6.50;98.00;;;;;;5102844;28;20501;-70
2022/02/21 08:58:00;;;;;;;1.20;1.00;;;6.60;98.00;;;;;;5100646;28;21157;-71
2022/02/21 09:00:27;;;;;;;1.67;1.43;;;6.60;98.00;;;;;;5092923;28;20489;-71
2022/02/21 09:02:57;;;;;;;1.20;1.00;;;6.70;98.00;;;;;;5074988;28;20494;-71
2022/02/21 09:05:25;;;;;;;3.97;2.73;;;6.80;98.00;;;;;;5092519;28;20448;-70
2022/02/21 09:07:52;;;;;;;1.20;1.00;;;6.90;98.00;;;;;;5092711;28;20444;-70
2022/02/21 09:10:19;;;;;;;1.20;1.00;;;7.00;98.00;;;;;;5092894;28;20483;-71
2022/02/21 09:12:46;;;;;;;1.30;1.13;;;7.10;98.00;;;;;;5092848;28;20535;-71
2022/02/21 09:15:14;;;;;;;1.20;1.00;;;7.00;98.00;;;;;;5092918;28;20557;-70
2022/02/21 09:17:42;;;;;;;4.27;1.37;;;7.00;98.00;;;;;;5091523;28;20461;-71
2022/02/21 09:20:15;;;;;;;1.20;0.90;;;6.90;98.00;;;;;;5091891;28;20456;-71
2022/02/21 09:22:42;;;;;;;1.20;0.90;;;6.90;98.00;;;;;;5091018;28;20480;-70
2022/02/21 09:25:11;;;;;;;1.20;1.00;;;6.90;98.00;;;;;;5092445;28;20541;-71
2022/02/21 09:27:40;;;;;;;1.37;1.00;;;6.90;98.00;;;;;;5092163;28;21145;-71
2022/02/21 09:30:10;;;;;;;1.20;0.90;;;6.90;98.00;;;;;;5092246;28;20980;-71
2022/02/21 09:32:38;;;;;;;1.20;0.90;;;7.00;98.00;;;;;;5092176;28;20537;-71
2022/02/21 09:35:06;;;;;;;1.50;1.27;;;7.10;98.00;;;;;;5092219;28;20973;-71
2022/02/21 09:37:35;;;;;;;1.20;1.00;;;7.10;98.00;;;;;;5092097;28;20447;-70
2022/02/21 09:40:04;;;;;;;1.20;1.00;;;7.10;98.00;;;;;;5092180;28;20541;-71
2022/02/21 09:42:32;;;;;;;1.40;1.20;;;7.10;98.00;;;;;;5092099;28;20470;-71
2022/02/21 09:44:59;;;;;;;1.20;1.00;;;7.20;98.00;;;;;;5091997;28;20641;-71
2022/02/21 09:47:27;;;;;;;4.60;1.90;;;7.10;98.00;;;;;;5091950;28;20451;-71
2022/02/21 09:49:56;;;;;;;1.83;1.30;;;7.10;98.00;;;;;;5091906;28;20945;-71
2022/02/21 09:52:24;;;;;;;1.20;1.00;;;7.00;98.00;;;;;;5091977;28;20832;-71
2022/02/21 09:54:51;;;;;;;1.20;0.90;;;7.00;98.00;;;;;;5091838;28;20471;-71
2022/02/21 09:57:23;;;;;;;1.20;1.00;;;6.90;98.00;;;;;;5091700;28;20571;-71
2022/02/21 09:59:50;;;;;;;1.20;1.00;;;6.80;98.00;;;;;;5091649;28;20867;-71
2022/02/21 10:02:23;;;;;;;1.20;1.00;;;6.80;98.00;;;;;;5091608;28;20499;-71
2022/02/21 10:05:11;;;;;;;1.20;0.90;;;6.90;98.00;;;;;;5091717;28;20459;-71
2022/02/21 10:07:38;;;;;;;1.20;1.00;;;7.00;98.00;;;;;;5091945;28;20483;-72
2022/02/21 10:10:07;;;;;;;1.20;1.00;;;7.10;98.00;;;;;;5092035;28;20894;-71
2022/02/21 10:12:44;;;;;;;1.20;1.00;;;7.20;98.00;;;;;;5091889;28;21046;-71
2022/02/21 10:15:16;;;;;;;1.20;1.00;;;7.20;98.00;;;;;;5091680;28;20457;-71
2022/02/21 10:17:43;;;;;;;1.20;0.90;;;7.30;98.00;;;;;;5091534;28;20832;-71
2022/02/21 10:20:13;;;;;;;1.20;1.10;;;7.30;98.00;;;;;;5091648;28;20485;-71
2022/02/21 10:22:40;;;;;;;1.30;1.10;;;7.20;98.00;;;;;;5091663;28;20466;-71
2022/02/21 10:25:19;;;;;;;1.30;1.20;;;7.30;98.00;;;;;;5091536;28;20458;-71
2022/02/21 10:27:46;;;;;;;1.20;1.00;;;7.30;98.00;;;;;;5091412;28;20517;-72
2022/02/21 10:30:16;;;;;;;1.20;0.90;;;7.30;98.00;;;;;;5098322;28;20579;-71
2022/02/21 10:32:47;;;;;;;1.20;1.00;;;7.30;98.00;;;;;;5093621;28;20469;-68
2022/02/21 10:35:18;;;;;;;1.20;1.00;;;7.40;98.00;;;;;;5099292;28;20544;-69
2022/02/21 10:37:47;;;;;;;1.20;0.90;;;7.40;98.00;;;;;;5094738;28;20491;-70
2022/02/21 10:40:17;;;;;;;1.30;1.17;;;7.40;98.00;;;;;;5103295;28;20481;-71
2022/02/21 10:42:45;;;;;;;1.37;1.30;;;7.60;98.00;;;;;;5103346;28;20490;-70
2022/02/21 10:45:15;;;;;;;1.20;0.97;;;7.50;96.90;;;;;;5105151;28;21007;-70
2022/02/21 10:47:57;;;;;;;1.20;0.90;;;7.50;95.60;;;;;;5103314;28;20488;-70
2022/02/21 10:50:27;;;;;;;1.20;1.00;;;7.60;95.70;;;;;;5109469;28;20526;-71
2022/02/21 10:52:54;;;;;;;1.20;0.90;;;7.60;96.70;;;;;;5093933;28;20875;-71
2022/02/21 10:55:21;;;;;;;1.20;0.90;;;7.60;94.70;;;;;;5102956;28;20484;-71
2022/02/21 10:57:48;;;;;;;1.20;1.00;;;7.60;95.90;;;;;;5094304;28;20521;-71
2022/02/21 11:00:16;;;;;;;1.20;1.00;;;7.70;95.00;;;;;;5103326;28;20454;-72
2022/02/21 11:02:44;;;;;;;1.20;1.00;;;7.90;96.30;;;;;;5103217;28;20537;-71
2022/02/21 11:05:12;;;;;;;1.20;1.00;;;8.20;94.60;;;;;;5102489;28;20516;-71
2022/02/21 11:07:42;;;;;;;1.20;0.97;;;8.50;94.70;;;;;;5101955;28;20490;-72
2022/02/21 11:10:12;;;;;;;1.20;1.00;;;8.70;92.40;;;;;;5102707;28;21054;-72
2022/02/21 11:12:44;;;;;;;1.30;1.13;;;8.80;93.60;;;;;;5102333;28;20891;-71
2022/02/21 11:15:11;;;;;;;1.20;0.90;;;8.70;93.30;;;;;;5102423;28;20536;-71
2022/02/21 11:17:39;;;;;;;1.20;1.00;;;8.70;91.40;;;;;;5102262;28;20454;-72
2022/02/21 11:20:08;;;;;;;1.20;0.90;;;8.50;90.60;;;;;;5110705;28;20456;-71
2022/02/21 11:22:40;;;;;;;1.20;0.90;;;8.90;91.30;;;;;;5094313;28;20549;-70
2022/02/21 11:25:22;;;;;;;1.20;0.90;;;8.90;88.70;;;;;;5103616;28;20495;-71
2022/02/21 11:27:55;;;;;;;1.77;1.20;;;9.20;88.40;;;;;;5102351;28;20461;-73
2022/02/21 11:30:24;;;;;;;1.20;1.10;;;9.40;88.70;;;;;;5103600;28;20582;-71
2022/02/21 11:33:08;;;;;;;1.20;0.90;;;9.10;88.40;;;;;;5101925;28;20493;-71
2022/02/21 11:35:37;;;;;;;1.20;1.00;;;8.80;89.00;;;;;;5101297;28;20885;-72
2022/02/21 11:38:17;;;;;;;1.20;1.00;;;8.50;89.60;;;;;;5105362;28;20561;-71
2022/02/21 11:40:55;;;;;;;1.20;1.00;;;8.30;90.10;;;;;;5098205;28;20972;-71
2022/02/21 11:43:30;;;;;;;1.40;1.20;;;8.10;91.10;;;;;;5109131;28;20508;-71
2022/02/21 11:45:58;;;;;;;1.20;1.00;;;8.10;92.30;;;;;;5101865;28;20489;-72
2022/02/21 11:48:25;;;;;;;1.20;0.90;;;8.10;92.90;;;;;;5101908;28;20487;-71
2022/02/21 11:50:59;;;;;;;1.20;1.00;;;8.00;93.90;;;;;;5098734;28;20566;-71
2022/02/21 11:53:29;;;;;;;1.20;1.10;;;8.00;93.50;;;;;;5110197;28;20826;-71
2022/02/21 11:55:59;;;;;;;1.20;0.90;;;8.00;94.10;;;;;;5102783;28;20534;-71
2022/02/21 11:58:36;;;;;;;1.50;1.40;;;7.90;95.60;;;;;;5101605;28;20478;-71
2022/02/21 12:01:15;;;;;;;1.40;1.20;;;7.90;95.30;;;;;;5101673;28;20460;-71
2022/02/21 12:03:43;;;;;;;1.20;1.00;;;8.00;95.40;;;;;;5107501;28;20466;-71
2022/02/21 12:06:30;;;;;;;1.20;1.00;;;7.80;96.50;;;;;;5101908;28;20454;-71
2022/02/21 12:09:02;;;;;;;1.20;1.10;;;7.90;98.00;;;;;;5096881;28;20462;-72
2022/02/21 12:11:31;;;;;;;1.20;0.90;;;7.90;98.00;;;;;;5105687;28;20445;-70
2022/02/21 12:14:23;;;;;;;1.20;1.00;;;8.40;98.00;;;;;;5106425;28;20457;-70
2022/02/21 12:17:09;;;;;;;1.20;1.00;;;8.50;97.70;;;;;;5104115;28;20472;-71
2022/02/21 12:19:38;;;;;;;1.20;1.00;;;8.50;93.70;;;;;;5106100;28;20880;-71
2022/02/21 12:22:18;;;;;;;1.20;1.00;;;8.40;94.60;;;;;;5092497;28;20458;-71
2022/02/21 12:25:11;;;;;;;1.20;1.00;;;8.40;95.60;;;;;;5102836;28;20533;-71
2022/02/21 12:28:11;;;;;;;1.20;1.00;;;8.40;94.10;;;;;;5103614;28;20797;-72
2022/02/21 12:30:39;;;;;;;1.20;1.00;;;8.60;93.60;;;;;;5101479;28;20499;-71
2022/02/21 12:33:08;;;;;;;2.07;1.53;;;8.60;94.70;;;;;;5092750;28;20702;-72
2022/02/21 12:35:46;;;;;;;1.50;1.27;;;8.60;95.90;;;;;;5091876;28;20494;-71
2022/02/21 12:38:14;;;;;;;1.20;0.90;;;8.50;93.40;;;;;;5093748;28;20880;-72
2022/02/21 12:41:05;;;;;;;1.20;1.00;;;8.40;93.70;;;;;;5108089;28;20566;-70
2022/02/21 12:43:54;;;;;;;2.23;1.10;;;8.30;94.70;;;;;;5091454;28;20480;-72
2022/02/21 12:46:22;;;;;;;1.20;0.90;;;8.40;95.20;;;;;;5100843;28;20466;-72
2022/02/21 12:48:50;;;;;;;1.20;1.10;;;8.40;92.70;;;;;;5100486;28;20929;-71
2022/02/21 12:51:22;;;;;;;1.20;0.93;;;8.30;93.50;;;;;;5091537;28;20582;-71
2022/02/21 12:53:51;;;;;;;1.20;1.00;;;8.30;92.80;;;;;;5108977;28;20456;-71
2022/02/21 12:56:20;;;;;;;2.97;1.50;;;8.30;91.50;;;;;;5099846;28;20458;-71
2022/02/21 12:58:51;;;;;;;1.20;0.90;;;8.40;90.80;;;;;;5108951;28;20483;-70
2022/02/21 13:01:21;;;;;;;3.73;1.33;;;8.40;89.50;;;;;;5101118;28;20453;-71
2022/02/21 13:03:55;;;;;;;2.23;1.37;;;8.30;89.10;;;;;;5109554;28;20541;-71
2022/02/21 13:06:23;;;;;;;1.20;1.00;;;8.30;89.30;;;;;;5100364;28;20463;-71